Terminal Aerodrome Forecast
Issued by NWS

Home | Current Version | Previous Version | Text Only | Print | Product List | Glossary On
Versions: 1 2 3 4 5 6 7 8 9 10 11 12 13 14 15 16 17 18 19 20 21 22 23 24 25 26 27 28 29 30 31 32 33 34 35
000
FTUS44 KFWD 170859 AAA
TAFFTW
TAF AMD
KFTW 170859Z 1709/1806 36007KT P6SM SCT070 OVC300
     FM171100 36008KT P6SM SCT025 BKN050
     FM172300 01006KT P6SM VCSH BKN035
     FM180300 01006KT 6SM -RA OVC015=

USA.gov is the U.S. government's official web portal to all federal, state and local government web resources and services.